Search for airport 
image banner adimage banner adimage banner ad
image banner ad

CA589 - Fort Good Hope (Cep7)

Located in , Canada

ICAO - , IATA -

Data provided by Airmate  

General information

Coordinates: N66°16'0" W128°39'0"
Elevation is feet MSL.
 
View others Airports in Northwest Territories

Operational data

Special qualification required
Current time UTC:
Current local time:
Weather at : CYGH - Fort Good Hope ( 3 km )
METAR: CYGH 221700Z 06005KT 020V080 25SM BKN170 BKN200 M00/M01 A2921 RMK AS6CS1 AC ASOCTD SLP900
TAF: TAF CYGH 221413Z 2214/2223 VRB03KT P6SM FEW160 BKN220 FM221900 11005KT P6SM SCT090 OVC140 FM222200 13006KT P6SM FEW120 SCT220 RMK NXT FCST BY 221800Z
View NOTAMs / SUP AIP / TFR affecting this airport [VIEW]
Communications frequencies: [VIEW]

Runways:

Airport contact information

Address: Canada

Satellite view of CA589